• Join FlightAware (Why Join?)
  • Login
  • US Flag 
01:06PM EDT


 

Airport Tracker/Info


-or-


 

Live Flight TrackerFlight Track Log ✈ PRY5 ✈ 19-Aug-2013 ✈ KERI - OH22

Flight Track Log - Related Links

Times and Time Zones

All times are in EDT time to prevent confusion due to time zone crossing. See the PRY5 flight status page for this flight to view local times or setup timezone preferences in your user account.

Time Position Orientation Groundspeed Altitude Reporting Facility
EDT Latitude Longitude Course Direction KTS MPH feet Rate Location/Type
06:24PM 41.8995 -80.4025 223° Southwest  Level Estimated
06:25PM 41.8688 -80.4405 223° Southwest  Level Estimated
06:26PM 41.8382 -80.4784 223° Southwest  Level Estimated
06:27PM 41.8075 -80.5163 223° Southwest  Level Estimated
06:28PM 41.7768 -80.5542 223° Southwest  Level Estimated
06:29PM 41.7461 -80.5920 223° Southwest  Level Estimated
06:30PM 41.7154 -80.6298 223° Southwest  Level Estimated
06:31PM 41.6847 -80.6675 223° Southwest  Level Estimated
06:32PM 41.6539 -80.7052 223° Southwest  Level Estimated
06:33PM 41.6232 -80.7429 222° Southwest  Level Estimated
06:34PM 41.5924 -80.7805 222° Southwest  Level Estimated
06:35PM 41.5617 -80.8182 222° Southwest  Level Estimated
06:36PM 41.5309 -80.8557 222° Southwest  Level Estimated
06:37PM 41.5001 -80.8932 222° Southwest  Level Estimated
06:38PM 41.4693 -80.9307 222° Southwest  Level Estimated
06:39PM 41.4384 -80.9682 222° Southwest  Level Estimated
06:40PM 41.4076 -81.0056 222° Southwest  Level Estimated
06:41PM 41.3768 -81.0430 222° Southwest  Level Estimated
06:42PM 41.3459 -81.0804 222° Southwest  Level Estimated
06:43PM 41.3150 -81.1177 222° Southwest  Level Estimated
06:44PM 41.2842 -81.1550 222° Southwest  Level Estimated
06:45PM 41.2533 -81.1922 222° Southwest  Level Estimated
06:46PM 41.2224 -81.2294 222° Southwest  Level Estimated
06:47PM 41.1915 -81.2666 222° Southwest  Level Estimated
06:48PM 41.1605 -81.3038 222° Southwest  Level Estimated
06:49PM 41.1296 -81.3409 222° Southwest  Level Estimated
06:50PM 41.0986 -81.3780 222° Southwest  Level Estimated
06:51PM 41.0677 -81.4150 222° Southwest  Level Estimated
06:52PM 41.0367 -81.4520 222° Southwest  Level Estimated
06:53PM 41.0057 -81.4890 222° Southwest  Level Estimated
06:54PM 40.9747 -81.5259 222° Southwest  Level Estimated
06:55PM 40.9437 -81.5628 222° Southwest  Level Estimated
06:56PM 40.9127 -81.5997 222° Southwest  Level Estimated
06:57PM 40.8816 -81.6365 222° Southwest  Level Estimated
06:58PM 40.8506 -81.6733 222° Southwest  Level Estimated
06:59PM 40.8195 -81.7101 222° Southwest  Level Estimated
07:00PM 40.7885 -81.7468 222° Southwest  Level Estimated